COU weather

Columbia Regional Airport
Columbia, Missouri, United States

Public forecast

Using degrees Fahrenheit for public forecast. Weather courtesy of forecast.io.

METAR (pilot weather report)

Retrieved 2019/09/16 06:54 UTC (12 minutes ago):

KCOU 160654Z AUTO 23003KT 10SM CLR 24/20 A3008 RMK AO2 SLP174 T02440200 $

TAF (pilot weather forecast)

Retrieved 2019/09/16 06:22 UTC (44 minutes ago):

TAF KCOU 160520Z 1606/1706 VRB04KT P6SM FEW250 FM161600 26004KT P6SM FEW250 FM170100 VRB03KT P6SM SCT250